Bereldange, Luxembourg
Current Conditions -  °F | °C
As of 10:50 PM on Wednesday 26 Nov 2014 (Local Time) from ELLX Reporting Station
Haze Haze  
Wind Chill: 38°   Ceiling: 200
Heat Index: 41°   Visibility: 0.62mi
Dew Point: 41°   Wind: 5mph
Humidity: 100%   Direction: 100°E
Pressure: 29.88"   Gusts: NA
Location:  49.66°N, 6.13°E
Report Text: ELLX 262150Z 10004KT 060V130 1000 R24/P1500N BR SCT000 OVC002 05/05 Q1012 NOSIG
Loading
Personal Weather Stations






























Interactive Weather Map New forecast layout! Learn more

10-Day Weather Forecast

Advertisements
Track Severe Weather on mobile